sensor_id;sensor_type;location;lat;lon;timestamp;P1;durP1;ratioP1;P2;durP2;ratioP2
79702;SDS011;69172;52.352;5.006;2023-05-10T00:01:01;44.30;;;21.45;;
79702;SDS011;69172;52.352;5.006;2023-05-10T00:03:27;42.50;;;23.35;;
79702;SDS011;69172;52.352;5.006;2023-05-10T00:05:53;41.90;;;20.83;;
79702;SDS011;69172;52.352;5.006;2023-05-10T00:08:18;41.53;;;20.77;;
79702;SDS011;69172;52.352;5.006;2023-05-10T00:10:44;48.65;;;23.88;;
79702;SDS011;69172;52.352;5.006;2023-05-10T00:13:09;46.60;;;23.70;;
79702;SDS011;69172;52.352;5.006;2023-05-10T00:15:35;51.67;;;24.42;;
79702;SDS011;69172;52.352;5.006;2023-05-10T00:18:00;48.13;;;23.02;;
79702;SDS011;69172;52.352;5.006;2023-05-10T00:20:25;47.17;;;23.77;;
79702;SDS011;69172;52.352;5.006;2023-05-10T00:22:51;48.22;;;25.15;;
79702;SDS011;69172;52.352;5.006;2023-05-10T00:25:16;46.72;;;23.92;;
79702;SDS011;69172;52.352;5.006;2023-05-10T00:27:42;48.30;;;22.83;;
79702;SDS011;69172;52.352;5.006;2023-05-10T00:30:07;49.00;;;24.63;;
79702;SDS011;69172;52.352;5.006;2023-05-10T00:32:33;43.00;;;23.17;;
79702;SDS011;69172;52.352;5.006;2023-05-10T00:34:58;51.92;;;25.75;;
79702;SDS011;69172;52.352;5.006;2023-05-10T00:37:24;51.10;;;25.13;;
79702;SDS011;69172;52.352;5.006;2023-05-10T00:39:49;49.40;;;25.45;;
79702;SDS011;69172;52.352;5.006;2023-05-10T00:42:15;49.67;;;24.10;;
79702;SDS011;69172;52.352;5.006;2023-05-10T00:44:40;47.33;;;23.42;;
79702;SDS011;69172;52.352;5.006;2023-05-10T00:47:06;54.00;;;24.52;;
79702;SDS011;69172;52.352;5.006;2023-05-10T00:49:31;48.58;;;24.02;;
79702;SDS011;69172;52.352;5.006;2023-05-10T00:51:57;48.95;;;25.50;;
79702;SDS011;69172;52.352;5.006;2023-05-10T00:54:23;48.33;;;23.05;;
79702;SDS011;69172;52.352;5.006;2023-05-10T00:56:49;53.70;;;26.67;;
79702;SDS011;69172;52.352;5.006;2023-05-10T00:59:16;46.83;;;23.73;;
79702;SDS011;69172;52.352;5.006;2023-05-10T01:01:43;49.03;;;23.45;;
79702;SDS011;69172;52.352;5.006;2023-05-10T01:04:10;51.08;;;26.48;;
79702;SDS011;69172;52.352;5.006;2023-05-10T01:06:38;48.67;;;24.63;;
79702;SDS011;69172;52.352;5.006;2023-05-10T01:09:04;49.97;;;25.85;;
79702;SDS011;69172;52.352;5.006;2023-05-10T01:11:30;49.55;;;23.65;;
79702;SDS011;69172;52.352;5.006;2023-05-10T01:13:56;47.17;;;25.27;;
79702;SDS011;69172;52.352;5.006;2023-05-10T01:16:23;46.53;;;23.90;;
79702;SDS011;69172;52.352;5.006;2023-05-10T01:18:49;47.65;;;24.48;;
79702;SDS011;69172;52.352;5.006;2023-05-10T01:35:00;41.70;;;22.95;;
79702;SDS011;69172;52.352;5.006;2023-05-10T01:37:33;44.92;;;23.13;;
79702;SDS011;69172;52.352;5.006;2023-05-10T01:43:06;47.67;;;23.50;;
79702;SDS011;69172;52.352;5.006;2023-05-10T01:45:43;49.33;;;25.85;;
79702;SDS011;69172;52.352;5.006;2023-05-10T01:48:15;42.72;;;23.58;;
79702;SDS011;69172;52.352;5.006;2023-05-10T01:50:43;48.45;;;24.13;;
79702;SDS011;69172;52.352;5.006;2023-05-10T01:53:11;46.97;;;24.92;;
79702;SDS011;69172;52.352;5.006;2023-05-10T01:55:43;46.47;;;23.58;;
79702;SDS011;69172;52.352;5.006;2023-05-10T01:58:17;41.10;;;21.98;;
79702;SDS011;69172;52.352;5.006;2023-05-10T02:00:46;43.90;;;23.92;;
79702;SDS011;69172;52.352;5.006;2023-05-10T02:03:14;45.60;;;23.92;;
79702;SDS011;69172;52.352;5.006;2023-05-10T02:05:41;44.13;;;23.60;;
79702;SDS011;69172;52.352;5.006;2023-05-10T02:08:10;51.35;;;25.38;;
79702;SDS011;69172;52.352;5.006;2023-05-10T02:10:36;44.50;;;25.05;;
79702;SDS011;69172;52.352;5.006;2023-05-10T02:13:04;46.70;;;25.10;;
79702;SDS011;69172;52.352;5.006;2023-05-10T02:15:32;54.70;;;24.38;;
79702;SDS011;69172;52.352;5.006;2023-05-10T02:18:03;49.55;;;26.13;;
79702;SDS011;69172;52.352;5.006;2023-05-10T02:20:31;50.75;;;25.75;;
79702;SDS011;69172;52.352;5.006;2023-05-10T02:22:57;52.20;;;24.67;;
79702;SDS011;69172;52.352;5.006;2023-05-10T02:25:23;52.00;;;25.33;;
79702;SDS011;69172;52.352;5.006;2023-05-10T02:27:51;58.17;;;28.05;;
79702;SDS011;69172;52.352;5.006;2023-05-10T02:30:20;51.42;;;23.92;;
79702;SDS011;69172;52.352;5.006;2023-05-10T02:32:48;52.22;;;26.48;;
79702;SDS011;69172;52.352;5.006;2023-05-10T02:35:14;50.80;;;25.48;;
79702;SDS011;69172;52.352;5.006;2023-05-10T02:37:41;51.83;;;26.52;;
79702;SDS011;69172;52.352;5.006;2023-05-10T02:40:08;61.90;;;30.27;;
79702;SDS011;69172;52.352;5.006;2023-05-10T02:42:37;59.90;;;28.42;;
79702;SDS011;69172;52.352;5.006;2023-05-10T02:45:05;67.20;;;30.08;;
79702;SDS011;69172;52.352;5.006;2023-05-10T02:47:33;71.47;;;32.83;;
79702;SDS011;69172;52.352;5.006;2023-05-10T02:49:59;66.63;;;32.05;;
79702;SDS011;69172;52.352;5.006;2023-05-10T02:52:25;66.30;;;30.65;;
79702;SDS011;69172;52.352;5.006;2023-05-10T02:54:54;59.85;;;29.38;;
79702;SDS011;69172;52.352;5.006;2023-05-10T02:57:24;52.55;;;23.17;;
79702;SDS011;69172;52.352;5.006;2023-05-10T02:59:53;51.10;;;25.15;;
79702;SDS011;69172;52.352;5.006;2023-05-10T03:02:19;48.25;;;24.95;;
79702;SDS011;69172;52.352;5.006;2023-05-10T03:04:45;45.63;;;21.92;;
79702;SDS011;69172;52.352;5.006;2023-05-10T03:07:11;38.85;;;20.75;;
79702;SDS011;69172;52.352;5.006;2023-05-10T03:09:37;44.17;;;21.55;;
79702;SDS011;69172;52.352;5.006;2023-05-10T03:12:15;43.75;;;20.77;;
79702;SDS011;69172;52.352;5.006;2023-05-10T03:20:36;48.80;;;24.13;;
79702;SDS011;69172;52.352;5.006;2023-05-10T03:25:51;49.38;;;23.63;;
79702;SDS011;69172;52.352;5.006;2023-05-10T03:28:17;40.30;;;20.20;;
79702;SDS011;69172;52.352;5.006;2023-05-10T03:30:43;46.88;;;22.77;;
79702;SDS011;69172;52.352;5.006;2023-05-10T03:33:10;40.65;;;18.88;;
79702;SDS011;69172;52.352;5.006;2023-05-10T03:35:35;39.53;;;19.83;;
79702;SDS011;69172;52.352;5.006;2023-05-10T03:38:01;42.88;;;21.75;;
79702;SDS011;69172;52.352;5.006;2023-05-10T03:40:27;53.15;;;23.17;;
79702;SDS011;69172;52.352;5.006;2023-05-10T03:42:59;43.90;;;20.48;;
79702;SDS011;69172;52.352;5.006;2023-05-10T03:45:25;45.90;;;21.83;;
79702;SDS011;69172;52.352;5.006;2023-05-10T03:47:50;45.83;;;20.90;;
79702;SDS011;69172;52.352;5.006;2023-05-10T03:50:16;51.03;;;24.13;;
79702;SDS011;69172;52.352;5.006;2023-05-10T03:52:41;55.20;;;25.15;;
79702;SDS011;69172;52.352;5.006;2023-05-10T03:55:06;55.13;;;26.77;;
79702;SDS011;69172;52.352;5.006;2023-05-10T03:57:32;53.28;;;25.58;;
79702;SDS011;69172;52.352;5.006;2023-05-10T03:59:58;56.42;;;26.92;;
79702;SDS011;69172;52.352;5.006;2023-05-10T04:02:24;57.95;;;27.33;;
79702;SDS011;69172;52.352;5.006;2023-05-10T04:04:49;52.05;;;24.63;;
79702;SDS011;69172;52.352;5.006;2023-05-10T04:07:15;45.65;;;20.73;;
79702;SDS011;69172;52.352;5.006;2023-05-10T04:09:40;43.92;;;18.98;;
79702;SDS011;69172;52.352;5.006;2023-05-10T04:12:05;43.90;;;18.35;;
79702;SDS011;69172;52.352;5.006;2023-05-10T04:14:31;45.55;;;21.08;;
79702;SDS011;69172;52.352;5.006;2023-05-10T04:16:57;39.58;;;18.15;;
79702;SDS011;69172;52.352;5.006;2023-05-10T04:19:22;43.78;;;19.63;;
79702;SDS011;69172;52.352;5.006;2023-05-10T04:21:47;38.53;;;16.90;;
79702;SDS011;69172;52.352;5.006;2023-05-10T04:24:13;34.47;;;17.27;;
79702;SDS011;69172;52.352;5.006;2023-05-10T04:26:38;42.17;;;18.50;;
79702;SDS011;69172;52.352;5.006;2023-05-10T04:29:03;37.72;;;17.85;;
79702;SDS011;69172;52.352;5.006;2023-05-10T04:31:29;42.35;;;19.50;;
79702;SDS011;69172;52.352;5.006;2023-05-10T04:33:54;44.25;;;19.27;;
79702;SDS011;69172;52.352;5.006;2023-05-10T04:36:19;41.53;;;20.52;;
79702;SDS011;69172;52.352;5.006;2023-05-10T04:38:45;41.22;;;19.15;;
79702;SDS011;69172;52.352;5.006;2023-05-10T04:41:10;45.28;;;19.52;;
79702;SDS011;69172;52.352;5.006;2023-05-10T04:43:36;41.55;;;19.80;;
79702;SDS011;69172;52.352;5.006;2023-05-10T04:46:03;42.40;;;19.48;;
79702;SDS011;69172;52.352;5.006;2023-05-10T04:48:28;43.13;;;18.70;;
79702;SDS011;69172;52.352;5.006;2023-05-10T04:50:54;39.72;;;19.38;;
79702;SDS011;69172;52.352;5.006;2023-05-10T04:53:19;38.15;;;18.80;;
79702;SDS011;69172;52.352;5.006;2023-05-10T04:55:46;34.35;;;16.73;;
79702;SDS011;69172;52.352;5.006;2023-05-10T04:58:11;39.40;;;18.70;;
79702;SDS011;69172;52.352;5.006;2023-05-10T05:00:37;40.75;;;19.63;;
79702;SDS011;69172;52.352;5.006;2023-05-10T05:03:02;41.25;;;19.27;;
79702;SDS011;69172;52.352;5.006;2023-05-10T05:05:28;35.70;;;18.85;;
79702;SDS011;69172;52.352;5.006;2023-05-10T05:07:53;40.08;;;19.95;;
79702;SDS011;69172;52.352;5.006;2023-05-10T05:10:18;41.17;;;18.70;;
79702;SDS011;69172;52.352;5.006;2023-05-10T05:12:44;39.20;;;18.60;;
79702;SDS011;69172;52.352;5.006;2023-05-10T05:15:09;37.45;;;17.50;;
79702;SDS011;69172;52.352;5.006;2023-05-10T05:17:35;43.63;;;18.55;;
79702;SDS011;69172;52.352;5.006;2023-05-10T05:20:01;41.33;;;19.30;;
79702;SDS011;69172;52.352;5.006;2023-05-10T05:22:26;43.60;;;20.27;;
79702;SDS011;69172;52.352;5.006;2023-05-10T05:24:56;40.58;;;18.98;;
79702;SDS011;69172;52.352;5.006;2023-05-10T05:27:23;42.28;;;18.63;;
79702;SDS011;69172;52.352;5.006;2023-05-10T05:29:54;42.03;;;18.50;;
79702;SDS011;69172;52.352;5.006;2023-05-10T05:32:20;40.13;;;17.23;;
79702;SDS011;69172;52.352;5.006;2023-05-10T05:34:47;35.22;;;15.27;;
79702;SDS011;69172;52.352;5.006;2023-05-10T05:37:13;33.05;;;15.40;;
79702;SDS011;69172;52.352;5.006;2023-05-10T05:39:39;32.10;;;14.38;;
79702;SDS011;69172;52.352;5.006;2023-05-10T05:42:05;38.25;;;16.88;;
79702;SDS011;69172;52.352;5.006;2023-05-10T05:44:30;33.72;;;16.05;;
79702;SDS011;69172;52.352;5.006;2023-05-10T05:46:55;37.53;;;17.15;;
79702;SDS011;69172;52.352;5.006;2023-05-10T05:49:21;32.15;;;15.10;;
79702;SDS011;69172;52.352;5.006;2023-05-10T05:51:46;29.23;;;13.82;;
79702;SDS011;69172;52.352;5.006;2023-05-10T05:54:20;29.85;;;14.00;;
79702;SDS011;69172;52.352;5.006;2023-05-10T05:56:45;25.48;;;12.50;;
79702;SDS011;69172;52.352;5.006;2023-05-10T05:59:11;28.40;;;13.13;;
79702;SDS011;69172;52.352;5.006;2023-05-10T06:01:37;24.90;;;12.20;;
79702;SDS011;69172;52.352;5.006;2023-05-10T06:04:02;26.52;;;12.25;;
79702;SDS011;69172;52.352;5.006;2023-05-10T06:06:28;26.17;;;11.88;;
79702;SDS011;69172;52.352;5.006;2023-05-10T06:08:54;30.20;;;13.38;;
79702;SDS011;69172;52.352;5.006;2023-05-10T06:11:20;27.98;;;12.65;;
79702;SDS011;69172;52.352;5.006;2023-05-10T06:13:52;25.55;;;11.90;;
79702;SDS011;69172;52.352;5.006;2023-05-10T06:16:18;29.25;;;13.35;;
79702;SDS011;69172;52.352;5.006;2023-05-10T06:18:45;22.95;;;12.10;;
79702;SDS011;69172;52.352;5.006;2023-05-10T06:21:14;23.98;;;10.75;;
79702;SDS011;69172;52.352;5.006;2023-05-10T06:23:48;19.98;;;10.55;;
79702;SDS011;69172;52.352;5.006;2023-05-10T06:26:13;19.35;;;9.40;;
79702;SDS011;69172;52.352;5.006;2023-05-10T06:28:39;21.15;;;10.27;;
79702;SDS011;69172;52.352;5.006;2023-05-10T06:31:05;22.67;;;11.73;;
79702;SDS011;69172;52.352;5.006;2023-05-10T06:33:31;24.02;;;11.80;;
79702;SDS011;69172;52.352;5.006;2023-05-10T06:35:57;24.00;;;11.52;;
79702;SDS011;69172;52.352;5.006;2023-05-10T06:38:22;23.08;;;12.20;;
79702;SDS011;69172;52.352;5.006;2023-05-10T06:40:48;24.50;;;11.00;;
79702;SDS011;69172;52.352;5.006;2023-05-10T06:43:13;19.40;;;10.32;;
79702;SDS011;69172;52.352;5.006;2023-05-10T06:45:39;20.92;;;10.93;;
79702;SDS011;69172;52.352;5.006;2023-05-10T06:48:05;21.65;;;10.32;;
79702;SDS011;69172;52.352;5.006;2023-05-10T06:50:31;22.45;;;10.57;;
79702;SDS011;69172;52.352;5.006;2023-05-10T06:52:56;23.35;;;10.77;;
79702;SDS011;69172;52.352;5.006;2023-05-10T06:55:21;28.05;;;11.52;;
79702;SDS011;69172;52.352;5.006;2023-05-10T06:57:47;25.38;;;11.50;;
79702;SDS011;69172;52.352;5.006;2023-05-10T07:00:13;22.25;;;11.68;;
79702;SDS011;69172;52.352;5.006;2023-05-10T07:02:39;20.70;;;10.63;;
79702;SDS011;69172;52.352;5.006;2023-05-10T07:05:04;19.92;;;10.45;;
79702;SDS011;69172;52.352;5.006;2023-05-10T07:07:30;23.67;;;11.52;;
79702;SDS011;69172;52.352;5.006;2023-05-10T07:09:57;20.58;;;10.88;;
79702;SDS011;69172;52.352;5.006;2023-05-10T07:12:23;18.45;;;9.80;;
79702;SDS011;69172;52.352;5.006;2023-05-10T07:14:49;20.02;;;10.98;;
79702;SDS011;69172;52.352;5.006;2023-05-10T07:17:14;16.35;;;9.52;;
79702;SDS011;69172;52.352;5.006;2023-05-10T07:19:40;20.25;;;9.50;;
79702;SDS011;69172;52.352;5.006;2023-05-10T07:22:05;15.40;;;8.02;;
79702;SDS011;69172;52.352;5.006;2023-05-10T07:24:31;16.25;;;8.77;;
79702;SDS011;69172;52.352;5.006;2023-05-10T07:26:58;17.50;;;8.25;;
79702;SDS011;69172;52.352;5.006;2023-05-10T07:29:23;19.42;;;8.13;;
79702;SDS011;69172;52.352;5.006;2023-05-10T07:31:48;16.70;;;7.38;;
79702;SDS011;69172;52.352;5.006;2023-05-10T07:34:14;19.65;;;8.55;;
79702;SDS011;69172;52.352;5.006;2023-05-10T07:36:39;18.40;;;9.18;;
79702;SDS011;69172;52.352;5.006;2023-05-10T07:39:06;22.17;;;9.40;;
79702;SDS011;69172;52.352;5.006;2023-05-10T07:41:31;20.05;;;9.55;;
79702;SDS011;69172;52.352;5.006;2023-05-10T07:44:04;19.00;;;9.73;;
79702;SDS011;69172;52.352;5.006;2023-05-10T07:46:30;20.02;;;10.02;;
79702;SDS011;69172;52.352;5.006;2023-05-10T07:48:56;21.40;;;11.43;;
79702;SDS011;69172;52.352;5.006;2023-05-10T07:51:21;18.95;;;9.35;;
79702;SDS011;69172;52.352;5.006;2023-05-10T07:53:47;19.30;;;10.93;;
79702;SDS011;69172;52.352;5.006;2023-05-10T07:56:19;22.20;;;10.85;;
79702;SDS011;69172;52.352;5.006;2023-05-10T07:58:50;23.52;;;10.13;;
79702;SDS011;69172;52.352;5.006;2023-05-10T08:01:16;22.63;;;12.23;;
79702;SDS011;69172;52.352;5.006;2023-05-10T08:03:41;24.05;;;12.55;;
79702;SDS011;69172;52.352;5.006;2023-05-10T08:06:06;21.75;;;12.63;;
79702;SDS011;69172;52.352;5.006;2023-05-10T08:08:33;19.30;;;10.98;;
79702;SDS011;69172;52.352;5.006;2023-05-10T08:10:58;20.88;;;11.57;;
79702;SDS011;69172;52.352;5.006;2023-05-10T08:13:24;20.13;;;11.65;;
79702;SDS011;69172;52.352;5.006;2023-05-10T08:15:51;22.67;;;11.75;;
79702;SDS011;69172;52.352;5.006;2023-05-10T08:18:18;21.90;;;11.70;;
79702;SDS011;69172;52.352;5.006;2023-05-10T08:20:44;22.45;;;12.02;;
79702;SDS011;69172;52.352;5.006;2023-05-10T08:23:09;20.45;;;11.38;;
79702;SDS011;69172;52.352;5.006;2023-05-10T08:25:36;20.75;;;10.82;;
79702;SDS011;69172;52.352;5.006;2023-05-10T08:28:01;18.23;;;11.77;;
79702;SDS011;69172;52.352;5.006;2023-05-10T08:30:26;19.63;;;11.68;;
79702;SDS011;69172;52.352;5.006;2023-05-10T08:32:52;22.65;;;11.70;;
79702;SDS011;69172;52.352;5.006;2023-05-10T08:35:17;20.58;;;10.48;;
79702;SDS011;69172;52.352;5.006;2023-05-10T08:37:42;22.48;;;12.43;;
79702;SDS011;69172;52.352;5.006;2023-05-10T08:40:08;20.13;;;10.57;;
79702;SDS011;69172;52.352;5.006;2023-05-10T08:42:39;16.15;;;8.77;;
79702;SDS011;69172;52.352;5.006;2023-05-10T08:45:08;18.70;;;7.80;;
79702;SDS011;69172;52.352;5.006;2023-05-10T08:47:36;14.18;;;7.65;;
79702;SDS011;69172;52.352;5.006;2023-05-10T08:50:03;13.35;;;7.15;;
79702;SDS011;69172;52.352;5.006;2023-05-10T08:52:29;13.25;;;7.13;;
79702;SDS011;69172;52.352;5.006;2023-05-10T08:54:56;11.68;;;6.57;;
79702;SDS011;69172;52.352;5.006;2023-05-10T08:57:27;13.32;;;6.70;;
79702;SDS011;69172;52.352;5.006;2023-05-10T08:59:53;12.23;;;6.25;;
79702;SDS011;69172;52.352;5.006;2023-05-10T09:02:19;12.43;;;5.68;;
79702;SDS011;69172;52.352;5.006;2023-05-10T09:04:46;11.00;;;6.00;;
79702;SDS011;69172;52.352;5.006;2023-05-10T09:07:11;11.70;;;6.07;;
79702;SDS011;69172;52.352;5.006;2023-05-10T09:09:37;11.73;;;4.82;;
79702;SDS011;69172;52.352;5.006;2023-05-10T09:12:03;11.10;;;5.38;;
79702;SDS011;69172;52.352;5.006;2023-05-10T09:14:29;10.90;;;5.30;;
79702;SDS011;69172;52.352;5.006;2023-05-10T09:16:55;11.15;;;4.90;;
79702;SDS011;69172;52.352;5.006;2023-05-10T09:19:21;11.65;;;4.78;;
79702;SDS011;69172;52.352;5.006;2023-05-10T09:21:46;10.90;;;4.03;;
79702;SDS011;69172;52.352;5.006;2023-05-10T09:24:12;9.13;;;3.97;;
79702;SDS011;69172;52.352;5.006;2023-05-10T09:26:45;9.15;;;4.22;;
79702;SDS011;69172;52.352;5.006;2023-05-10T09:29:13;10.27;;;4.30;;
79702;SDS011;69172;52.352;5.006;2023-05-10T09:36:51;9.43;;;4.13;;
79702;SDS011;69172;52.352;5.006;2023-05-10T09:39:17;8.40;;;4.03;;
79702;SDS011;69172;52.352;5.006;2023-05-10T09:41:43;10.13;;;4.90;;
79702;SDS011;69172;52.352;5.006;2023-05-10T09:44:09;10.63;;;4.20;;
79702;SDS011;69172;52.352;5.006;2023-05-10T09:46:37;10.75;;;4.28;;
79702;SDS011;69172;52.352;5.006;2023-05-10T09:49:02;11.30;;;4.60;;
79702;SDS011;69172;52.352;5.006;2023-05-10T09:51:28;10.68;;;4.32;;
79702;SDS011;69172;52.352;5.006;2023-05-10T09:56:39;9.55;;;4.25;;
79702;SDS011;69172;52.352;5.006;2023-05-10T09:59:06;10.73;;;4.40;;
79702;SDS011;69172;52.352;5.006;2023-05-10T10:01:32;9.73;;;4.47;;
79702;SDS011;69172;52.352;5.006;2023-05-10T10:03:59;9.50;;;4.43;;
79702;SDS011;69172;52.352;5.006;2023-05-10T10:06:34;11.27;;;3.83;;
79702;SDS011;69172;52.352;5.006;2023-05-10T10:09:03;8.48;;;3.38;;
79702;SDS011;69172;52.352;5.006;2023-05-10T10:11:30;10.13;;;3.80;;
79702;SDS011;69172;52.352;5.006;2023-05-10T10:13:55;9.10;;;3.83;;
79702;SDS011;69172;52.352;5.006;2023-05-10T10:16:20;8.23;;;3.50;;
79702;SDS011;69172;52.352;5.006;2023-05-10T10:18:47;9.45;;;3.78;;
79702;SDS011;69172;52.352;5.006;2023-05-10T10:21:13;9.70;;;3.30;;
79702;SDS011;69172;52.352;5.006;2023-05-10T10:23:39;8.20;;;3.03;;
79702;SDS011;69172;52.352;5.006;2023-05-10T10:26:05;7.90;;;3.05;;
79702;SDS011;69172;52.352;5.006;2023-05-10T10:34:00;7.13;;;3.17;;
79702;SDS011;69172;52.352;5.006;2023-05-10T10:36:30;8.52;;;3.25;;
79702;SDS011;69172;52.352;5.006;2023-05-10T10:38:59;8.75;;;3.33;;
79702;SDS011;69172;52.352;5.006;2023-05-10T10:41:34;8.68;;;3.40;;
79702;SDS011;69172;52.352;5.006;2023-05-10T10:47:00;9.27;;;3.83;;
79702;SDS011;69172;52.352;5.006;2023-05-10T10:49:27;8.73;;;3.17;;
79702;SDS011;69172;52.352;5.006;2023-05-10T10:54:57;8.60;;;2.92;;
79702;SDS011;69172;52.352;5.006;2023-05-10T10:57:26;8.80;;;3.65;;
79702;SDS011;69172;52.352;5.006;2023-05-10T11:02:44;9.10;;;3.05;;
79702;SDS011;69172;52.352;5.006;2023-05-10T11:07:57;8.50;;;2.70;;
79702;SDS011;69172;52.352;5.006;2023-05-10T11:10:25;8.25;;;3.17;;
79702;SDS011;69172;52.352;5.006;2023-05-10T11:15:35;7.35;;;2.97;;
79702;SDS011;69172;52.352;5.006;2023-05-10T11:18:18;7.50;;;2.83;;
79702;SDS011;69172;52.352;5.006;2023-05-10T11:20:58;7.50;;;3.10;;
79702;SDS011;69172;52.352;5.006;2023-05-10T11:25:55;8.15;;;3.30;;
79702;SDS011;69172;52.352;5.006;2023-05-10T11:28:20;7.40;;;3.00;;
79702;SDS011;69172;52.352;5.006;2023-05-10T11:30:46;7.47;;;2.70;;
79702;SDS011;69172;52.352;5.006;2023-05-10T11:33:16;8.00;;;2.97;;
79702;SDS011;69172;52.352;5.006;2023-05-10T11:35:42;8.48;;;3.20;;
79702;SDS011;69172;52.352;5.006;2023-05-10T11:38:08;10.18;;;3.10;;
79702;SDS011;69172;52.352;5.006;2023-05-10T11:40:36;7.65;;;2.97;;
79702;SDS011;69172;52.352;5.006;2023-05-10T11:43:03;7.82;;;3.03;;
79702;SDS011;69172;52.352;5.006;2023-05-10T11:45:33;11.52;;;3.78;;
79702;SDS011;69172;52.352;5.006;2023-05-10T11:47:59;9.32;;;3.10;;
79702;SDS011;69172;52.352;5.006;2023-05-10T11:50:26;9.27;;;3.33;;
79702;SDS011;69172;52.352;5.006;2023-05-10T11:52:52;11.52;;;4.05;;
79702;SDS011;69172;52.352;5.006;2023-05-10T11:55:18;8.98;;;3.47;;
79702;SDS011;69172;52.352;5.006;2023-05-10T11:57:44;11.32;;;4.00;;
79702;SDS011;69172;52.352;5.006;2023-05-10T12:00:11;9.05;;;3.17;;
79702;SDS011;69172;52.352;5.006;2023-05-10T12:02:39;9.20;;;3.35;;
79702;SDS011;69172;52.352;5.006;2023-05-10T12:05:11;9.82;;;3.05;;
79702;SDS011;69172;52.352;5.006;2023-05-10T12:07:37;7.68;;;3.45;;
79702;SDS011;69172;52.352;5.006;2023-05-10T12:10:12;10.18;;;3.40;;
79702;SDS011;69172;52.352;5.006;2023-05-10T12:12:44;10.45;;;4.40;;
79702;SDS011;69172;52.352;5.006;2023-05-10T12:17:39;12.05;;;4.93;;
79702;SDS011;69172;52.352;5.006;2023-05-10T12:20:14;9.55;;;3.85;;
79702;SDS011;69172;52.352;5.006;2023-05-10T12:22:49;10.82;;;5.10;;
79702;SDS011;69172;52.352;5.006;2023-05-10T12:25:16;10.35;;;4.40;;
79702;SDS011;69172;52.352;5.006;2023-05-10T12:28:02;11.15;;;4.90;;
79702;SDS011;69172;52.352;5.006;2023-05-10T12:33:38;11.90;;;5.07;;
79702;SDS011;69172;52.352;5.006;2023-05-10T12:36:06;12.30;;;5.35;;
79702;SDS011;69172;52.352;5.006;2023-05-10T12:41:02;14.07;;;5.15;;
79702;SDS011;69172;52.352;5.006;2023-05-10T12:43:28;10.15;;;5.28;;
79702;SDS011;69172;52.352;5.006;2023-05-10T12:45:54;11.35;;;5.10;;
79702;SDS011;69172;52.352;5.006;2023-05-10T12:48:19;12.75;;;4.85;;
79702;SDS011;69172;52.352;5.006;2023-05-10T12:50:45;12.88;;;5.50;;
79702;SDS011;69172;52.352;5.006;2023-05-10T12:53:11;12.73;;;5.40;;
79702;SDS011;69172;52.352;5.006;2023-05-10T12:55:36;12.95;;;4.93;;
79702;SDS011;69172;52.352;5.006;2023-05-10T12:58:02;11.13;;;4.68;;
79702;SDS011;69172;52.352;5.006;2023-05-10T13:00:27;11.05;;;5.40;;
79702;SDS011;69172;52.352;5.006;2023-05-10T13:02:53;10.52;;;4.20;;
79702;SDS011;69172;52.352;5.006;2023-05-10T13:05:19;10.05;;;4.28;;
79702;SDS011;69172;52.352;5.006;2023-05-10T13:07:45;10.93;;;4.90;;
79702;SDS011;69172;52.352;5.006;2023-05-10T13:10:10;12.32;;;6.15;;
79702;SDS011;69172;52.352;5.006;2023-05-10T13:12:36;8.25;;;3.35;;
79702;SDS011;69172;52.352;5.006;2023-05-10T13:15:02;9.38;;;3.67;;
79702;SDS011;69172;52.352;5.006;2023-05-10T13:17:28;10.23;;;4.18;;
79702;SDS011;69172;52.352;5.006;2023-05-10T13:19:54;13.73;;;4.63;;
79702;SDS011;69172;52.352;5.006;2023-05-10T13:22:19;11.02;;;4.40;;
79702;SDS011;69172;52.352;5.006;2023-05-10T13:24:45;9.45;;;3.65;;
79702;SDS011;69172;52.352;5.006;2023-05-10T13:27:10;10.27;;;3.85;;
79702;SDS011;69172;52.352;5.006;2023-05-10T13:29:35;6.75;;;2.50;;
79702;SDS011;69172;52.352;5.006;2023-05-10T13:32:01;7.65;;;2.35;;
79702;SDS011;69172;52.352;5.006;2023-05-10T13:34:26;6.40;;;2.72;;
79702;SDS011;69172;52.352;5.006;2023-05-10T13:36:52;4.88;;;1.80;;
79702;SDS011;69172;52.352;5.006;2023-05-10T13:39:19;9.30;;;3.38;;
79702;SDS011;69172;52.352;5.006;2023-05-10T13:41:45;7.05;;;2.58;;
79702;SDS011;69172;52.352;5.006;2023-05-10T13:44:12;8.25;;;3.22;;
79702;SDS011;69172;52.352;5.006;2023-05-10T13:46:38;6.88;;;2.85;;
79702;SDS011;69172;52.352;5.006;2023-05-10T13:49:04;8.40;;;3.05;;
79702;SDS011;69172;52.352;5.006;2023-05-10T13:51:29;6.35;;;2.53;;
79702;SDS011;69172;52.352;5.006;2023-05-10T13:53:56;7.85;;;3.40;;
79702;SDS011;69172;52.352;5.006;2023-05-10T13:56:22;6.88;;;2.95;;
79702;SDS011;69172;52.352;5.006;2023-05-10T13:58:49;8.65;;;3.80;;
79702;SDS011;69172;52.352;5.006;2023-05-10T14:01:14;10.95;;;4.32;;
79702;SDS011;69172;52.352;5.006;2023-05-10T14:03:40;9.70;;;3.67;;
79702;SDS011;69172;52.352;5.006;2023-05-10T14:06:05;9.98;;;3.60;;
79702;SDS011;69172;52.352;5.006;2023-05-10T14:08:32;10.00;;;3.28;;
79702;SDS011;69172;52.352;5.006;2023-05-10T14:10:58;8.88;;;3.22;;
79702;SDS011;69172;52.352;5.006;2023-05-10T14:13:24;12.48;;;4.53;;
79702;SDS011;69172;52.352;5.006;2023-05-10T14:15:50;13.23;;;5.43;;
79702;SDS011;69172;52.352;5.006;2023-05-10T14:18:16;10.65;;;4.93;;
79702;SDS011;69172;52.352;5.006;2023-05-10T14:20:41;10.20;;;4.25;;
79702;SDS011;69172;52.352;5.006;2023-05-10T14:23:06;13.27;;;5.32;;
79702;SDS011;69172;52.352;5.006;2023-05-10T14:25:32;10.80;;;4.57;;
79702;SDS011;69172;52.352;5.006;2023-05-10T14:27:58;13.85;;;4.72;;
79702;SDS011;69172;52.352;5.006;2023-05-10T14:30:23;12.52;;;5.28;;
79702;SDS011;69172;52.352;5.006;2023-05-10T14:32:49;11.75;;;4.85;;
79702;SDS011;69172;52.352;5.006;2023-05-10T14:35:14;12.15;;;4.82;;
79702;SDS011;69172;52.352;5.006;2023-05-10T14:37:40;11.43;;;4.85;;
79702;SDS011;69172;52.352;5.006;2023-05-10T14:40:05;13.05;;;5.03;;
79702;SDS011;69172;52.352;5.006;2023-05-10T14:42:31;11.68;;;4.93;;
79702;SDS011;69172;52.352;5.006;2023-05-10T14:44:57;9.95;;;4.40;;
79702;SDS011;69172;52.352;5.006;2023-05-10T14:47:22;9.13;;;4.03;;
79702;SDS011;69172;52.352;5.006;2023-05-10T14:49:47;11.30;;;4.13;;
79702;SDS011;69172;52.352;5.006;2023-05-10T14:52:13;9.93;;;4.00;;
79702;SDS011;69172;52.352;5.006;2023-05-10T14:54:39;8.45;;;4.05;;
79702;SDS011;69172;52.352;5.006;2023-05-10T14:57:05;9.45;;;3.85;;
79702;SDS011;69172;52.352;5.006;2023-05-10T14:59:31;9.23;;;3.65;;
79702;SDS011;69172;52.352;5.006;2023-05-10T15:01:56;7.55;;;2.95;;
79702;SDS011;69172;52.352;5.006;2023-05-10T15:04:23;7.10;;;3.13;;
79702;SDS011;69172;52.352;5.006;2023-05-10T15:06:48;7.22;;;2.88;;
79702;SDS011;69172;52.352;5.006;2023-05-10T15:09:14;6.10;;;2.63;;
79702;SDS011;69172;52.352;5.006;2023-05-10T15:11:40;7.85;;;2.63;;
79702;SDS011;69172;52.352;5.006;2023-05-10T15:14:06;7.93;;;2.80;;
79702;SDS011;69172;52.352;5.006;2023-05-10T15:16:32;7.45;;;3.35;;
79702;SDS011;69172;52.352;5.006;2023-05-10T15:18:57;6.43;;;2.70;;
79702;SDS011;69172;52.352;5.006;2023-05-10T15:21:22;6.85;;;2.80;;
79702;SDS011;69172;52.352;5.006;2023-05-10T15:23:48;7.20;;;2.80;;
79702;SDS011;69172;52.352;5.006;2023-05-10T15:26:13;7.88;;;3.10;;
79702;SDS011;69172;52.352;5.006;2023-05-10T15:28:39;6.85;;;2.90;;
79702;SDS011;69172;52.352;5.006;2023-05-10T15:31:04;7.75;;;2.80;;